sensor_id;sensor_type;location;lat;lon;timestamp;P1;durP1;ratioP1;P2;durP2;ratioP2
48995;SDS011;34806;53.882;10.656;2022-08-03T00:02:16;4.75;;;2.20;;
48995;SDS011;34806;53.882;10.656;2022-08-03T00:04:44;6.50;;;2.38;;
48995;SDS011;34806;53.882;10.656;2022-08-03T00:07:14;3.25;;;2.33;;
48995;SDS011;34806;53.882;10.656;2022-08-03T00:09:42;3.05;;;2.10;;
48995;SDS011;34806;53.882;10.656;2022-08-03T00:12:11;3.53;;;2.20;;
48995;SDS011;34806;53.882;10.656;2022-08-03T00:14:40;2.45;;;2.17;;
48995;SDS011;34806;53.882;10.656;2022-08-03T00:17:08;4.38;;;2.47;;
48995;SDS011;34806;53.882;10.656;2022-08-03T00:19:36;5.50;;;2.38;;
48995;SDS011;34806;53.882;10.656;2022-08-03T00:22:05;4.80;;;2.15;;
48995;SDS011;34806;53.882;10.656;2022-08-03T00:24:34;4.28;;;2.25;;
48995;SDS011;34806;53.882;10.656;2022-08-03T00:27:02;3.83;;;2.00;;
48995;SDS011;34806;53.882;10.656;2022-08-03T00:29:31;2.40;;;2.10;;
48995;SDS011;34806;53.882;10.656;2022-08-03T00:32:19;2.88;;;2.40;;
48995;SDS011;34806;53.882;10.656;2022-08-03T00:34:50;2.60;;;2.40;;
48995;SDS011;34806;53.882;10.656;2022-08-03T00:37:24;5.03;;;2.40;;
48995;SDS011;34806;53.882;10.656;2022-08-03T00:40:09;2.55;;;2.35;;
48995;SDS011;34806;53.882;10.656;2022-08-03T00:42:45;4.82;;;2.22;;
48995;SDS011;34806;53.882;10.656;2022-08-03T00:45:19;2.78;;;2.20;;
48995;SDS011;34806;53.882;10.656;2022-08-03T00:47:48;2.83;;;2.42;;
48995;SDS011;34806;53.882;10.656;2022-08-03T00:50:17;3.38;;;2.10;;
48995;SDS011;34806;53.882;10.656;2022-08-03T00:52:48;5.30;;;2.63;;
48995;SDS011;34806;53.882;10.656;2022-08-03T00:55:19;4.10;;;2.40;;
48995;SDS011;34806;53.882;10.656;2022-08-03T00:57:47;2.45;;;2.28;;
48995;SDS011;34806;53.882;10.656;2022-08-03T01:00:17;3.38;;;2.50;;
48995;SDS011;34806;53.882;10.656;2022-08-03T01:02:48;2.40;;;2.20;;
48995;SDS011;34806;53.882;10.656;2022-08-03T01:05:16;5.65;;;2.65;;
48995;SDS011;34806;53.882;10.656;2022-08-03T01:07:48;2.90;;;2.40;;
48995;SDS011;34806;53.882;10.656;2022-08-03T01:10:31;3.65;;;2.38;;
48995;SDS011;34806;53.882;10.656;2022-08-03T01:13:13;3.20;;;2.60;;
48995;SDS011;34806;53.882;10.656;2022-08-03T01:16:11;3.65;;;2.55;;
48995;SDS011;34806;53.882;10.656;2022-08-03T01:18:51;3.15;;;2.30;;
48995;SDS011;34806;53.882;10.656;2022-08-03T01:21:25;3.63;;;2.45;;
48995;SDS011;34806;53.882;10.656;2022-08-03T01:24:02;5.45;;;2.55;;
48995;SDS011;34806;53.882;10.656;2022-08-03T01:26:45;3.35;;;2.85;;
48995;SDS011;34806;53.882;10.656;2022-08-03T01:29:32;3.28;;;2.35;;
48995;SDS011;34806;53.882;10.656;2022-08-03T01:32:33;3.15;;;2.85;;
48995;SDS011;34806;53.882;10.656;2022-08-03T01:35:26;5.05;;;3.00;;
48995;SDS011;34806;53.882;10.656;2022-08-03T01:38:04;3.67;;;2.63;;
48995;SDS011;34806;53.882;10.656;2022-08-03T01:40:36;2.70;;;2.50;;
48995;SDS011;34806;53.882;10.656;2022-08-03T01:43:08;7.05;;;2.70;;
48995;SDS011;34806;53.882;10.656;2022-08-03T01:45:41;4.10;;;2.72;;
48995;SDS011;34806;53.882;10.656;2022-08-03T01:48:11;5.88;;;3.28;;
48995;SDS011;34806;53.882;10.656;2022-08-03T01:50:42;4.95;;;2.90;;
48995;SDS011;34806;53.882;10.656;2022-08-03T01:53:13;5.13;;;2.78;;
48995;SDS011;34806;53.882;10.656;2022-08-03T01:55:42;4.60;;;3.00;;
48995;SDS011;34806;53.882;10.656;2022-08-03T01:58:13;4.95;;;2.75;;
48995;SDS011;34806;53.882;10.656;2022-08-03T02:00:44;3.95;;;2.85;;
48995;SDS011;34806;53.882;10.656;2022-08-03T02:03:15;5.13;;;2.80;;
48995;SDS011;34806;53.882;10.656;2022-08-03T02:05:44;3.20;;;2.72;;
48995;SDS011;34806;53.882;10.656;2022-08-03T02:08:26;4.25;;;2.97;;
48995;SDS011;34806;53.882;10.656;2022-08-03T02:10:56;3.28;;;3.05;;
48995;SDS011;34806;53.882;10.656;2022-08-03T02:13:25;6.88;;;3.40;;
48995;SDS011;34806;53.882;10.656;2022-08-03T02:15:56;3.63;;;3.00;;
48995;SDS011;34806;53.882;10.656;2022-08-03T02:18:25;4.32;;;2.58;;
48995;SDS011;34806;53.882;10.656;2022-08-03T02:20:55;4.05;;;3.20;;
48995;SDS011;34806;53.882;10.656;2022-08-03T02:23:25;6.15;;;2.90;;
48995;SDS011;34806;53.882;10.656;2022-08-03T02:25:56;5.00;;;3.20;;
48995;SDS011;34806;53.882;10.656;2022-08-03T02:28:28;4.63;;;2.80;;
48995;SDS011;34806;53.882;10.656;2022-08-03T02:31:03;5.97;;;3.22;;
48995;SDS011;34806;53.882;10.656;2022-08-03T02:33:38;3.78;;;3.20;;
48995;SDS011;34806;53.882;10.656;2022-08-03T02:36:09;6.05;;;3.00;;
48995;SDS011;34806;53.882;10.656;2022-08-03T02:38:40;4.50;;;3.70;;
48995;SDS011;34806;53.882;10.656;2022-08-03T02:41:12;3.60;;;3.33;;
48995;SDS011;34806;53.882;10.656;2022-08-03T02:43:43;3.75;;;3.13;;
48995;SDS011;34806;53.882;10.656;2022-08-03T02:46:35;5.93;;;3.42;;
48995;SDS011;34806;53.882;10.656;2022-08-03T02:49:05;5.00;;;3.53;;
48995;SDS011;34806;53.882;10.656;2022-08-03T02:51:54;5.20;;;3.30;;
48995;SDS011;34806;53.882;10.656;2022-08-03T02:54:23;4.55;;;3.50;;
48995;SDS011;34806;53.882;10.656;2022-08-03T02:56:55;4.00;;;3.60;;
48995;SDS011;34806;53.882;10.656;2022-08-03T02:59:25;4.55;;;3.70;;
48995;SDS011;34806;53.882;10.656;2022-08-03T03:01:58;4.32;;;3.97;;
48995;SDS011;34806;53.882;10.656;2022-08-03T03:04:28;4.90;;;3.67;;
48995;SDS011;34806;53.882;10.656;2022-08-03T03:06:58;5.68;;;4.05;;
48995;SDS011;34806;53.882;10.656;2022-08-03T03:09:30;7.95;;;3.63;;
48995;SDS011;34806;53.882;10.656;2022-08-03T03:12:09;7.40;;;3.75;;
48995;SDS011;34806;53.882;10.656;2022-08-03T03:14:39;4.05;;;3.75;;
48995;SDS011;34806;53.882;10.656;2022-08-03T03:17:09;4.97;;;3.78;;
48995;SDS011;34806;53.882;10.656;2022-08-03T03:19:38;4.95;;;4.00;;
48995;SDS011;34806;53.882;10.656;2022-08-03T03:22:07;5.95;;;3.83;;
48995;SDS011;34806;53.882;10.656;2022-08-03T03:24:37;5.40;;;3.85;;
48995;SDS011;34806;53.882;10.656;2022-08-03T03:27:07;4.38;;;3.92;;
48995;SDS011;34806;53.882;10.656;2022-08-03T03:29:42;5.13;;;3.65;;
48995;SDS011;34806;53.882;10.656;2022-08-03T03:32:12;4.45;;;3.83;;
48995;SDS011;34806;53.882;10.656;2022-08-03T03:34:41;9.20;;;4.45;;
48995;SDS011;34806;53.882;10.656;2022-08-03T03:37:10;6.80;;;3.97;;
48995;SDS011;34806;53.882;10.656;2022-08-03T03:39:38;4.50;;;4.10;;
48995;SDS011;34806;53.882;10.656;2022-08-03T03:42:06;4.82;;;3.80;;
48995;SDS011;34806;53.882;10.656;2022-08-03T03:44:34;4.63;;;4.00;;
48995;SDS011;34806;53.882;10.656;2022-08-03T03:47:03;4.00;;;3.60;;
48995;SDS011;34806;53.882;10.656;2022-08-03T03:49:33;4.30;;;4.00;;
48995;SDS011;34806;53.882;10.656;2022-08-03T03:52:03;4.60;;;3.97;;
48995;SDS011;34806;53.882;10.656;2022-08-03T03:54:38;5.05;;;3.88;;
48995;SDS011;34806;53.882;10.656;2022-08-03T03:57:07;4.30;;;3.90;;
48995;SDS011;34806;53.882;10.656;2022-08-03T03:59:39;6.05;;;4.22;;
48995;SDS011;34806;53.882;10.656;2022-08-03T04:02:09;4.93;;;4.38;;
48995;SDS011;34806;53.882;10.656;2022-08-03T04:04:39;5.47;;;4.43;;
48995;SDS011;34806;53.882;10.656;2022-08-03T04:07:25;6.55;;;4.60;;
48995;SDS011;34806;53.882;10.656;2022-08-03T04:10:12;6.40;;;4.47;;
48995;SDS011;34806;53.882;10.656;2022-08-03T04:13:01;5.93;;;4.80;;
48995;SDS011;34806;53.882;10.656;2022-08-03T04:15:33;7.75;;;4.18;;
48995;SDS011;34806;53.882;10.656;2022-08-03T04:18:02;4.90;;;4.40;;
48995;SDS011;34806;53.882;10.656;2022-08-03T04:20:32;6.32;;;4.30;;
48995;SDS011;34806;53.882;10.656;2022-08-03T04:23:03;5.78;;;4.20;;
48995;SDS011;34806;53.882;10.656;2022-08-03T04:25:40;4.50;;;4.10;;
48995;SDS011;34806;53.882;10.656;2022-08-03T04:28:10;5.55;;;4.65;;
48995;SDS011;34806;53.882;10.656;2022-08-03T04:30:57;4.55;;;4.15;;
48995;SDS011;34806;53.882;10.656;2022-08-03T04:33:26;5.07;;;4.50;;
48995;SDS011;34806;53.882;10.656;2022-08-03T04:35:58;4.35;;;3.95;;
48995;SDS011;34806;53.882;10.656;2022-08-03T04:38:29;4.97;;;4.45;;
48995;SDS011;34806;53.882;10.656;2022-08-03T04:40:59;5.68;;;4.63;;
48995;SDS011;34806;53.882;10.656;2022-08-03T04:43:27;5.60;;;4.60;;
48995;SDS011;34806;53.882;10.656;2022-08-03T04:45:58;8.27;;;3.90;;
48995;SDS011;34806;53.882;10.656;2022-08-03T04:48:26;4.35;;;3.90;;
48995;SDS011;34806;53.882;10.656;2022-08-03T04:50:55;6.45;;;3.90;;
48995;SDS011;34806;53.882;10.656;2022-08-03T04:53:25;5.32;;;3.45;;
48995;SDS011;34806;53.882;10.656;2022-08-03T04:55:53;4.65;;;3.97;;
48995;SDS011;34806;53.882;10.656;2022-08-03T04:58:21;4.15;;;3.75;;
48995;SDS011;34806;53.882;10.656;2022-08-03T05:00:49;4.35;;;3.60;;
48995;SDS011;34806;53.882;10.656;2022-08-03T05:03:17;4.70;;;3.88;;
48995;SDS011;34806;53.882;10.656;2022-08-03T05:05:50;3.97;;;3.63;;
48995;SDS011;34806;53.882;10.656;2022-08-03T05:08:28;5.95;;;3.75;;
48995;SDS011;34806;53.882;10.656;2022-08-03T05:10:56;4.72;;;4.18;;
48995;SDS011;34806;53.882;10.656;2022-08-03T05:13:24;4.30;;;3.55;;
48995;SDS011;34806;53.882;10.656;2022-08-03T05:15:52;5.38;;;4.07;;
48995;SDS011;34806;53.882;10.656;2022-08-03T05:18:21;4.90;;;4.10;;
48995;SDS011;34806;53.882;10.656;2022-08-03T05:20:49;4.15;;;3.85;;
48995;SDS011;34806;53.882;10.656;2022-08-03T05:23:17;5.97;;;3.88;;
48995;SDS011;34806;53.882;10.656;2022-08-03T05:25:46;4.97;;;3.78;;
48995;SDS011;34806;53.882;10.656;2022-08-03T05:28:15;4.22;;;3.83;;
48995;SDS011;34806;53.882;10.656;2022-08-03T05:30:43;4.18;;;3.78;;
48995;SDS011;34806;53.882;10.656;2022-08-03T05:33:11;3.92;;;3.63;;
48995;SDS011;34806;53.882;10.656;2022-08-03T05:35:39;4.70;;;3.15;;
48995;SDS011;34806;53.882;10.656;2022-08-03T05:38:27;4.13;;;3.72;;
48995;SDS011;34806;53.882;10.656;2022-08-03T05:41:01;4.00;;;3.60;;
48995;SDS011;34806;53.882;10.656;2022-08-03T05:43:49;6.63;;;3.90;;
48995;SDS011;34806;53.882;10.656;2022-08-03T05:46:17;4.05;;;3.65;;
48995;SDS011;34806;53.882;10.656;2022-08-03T05:48:46;6.57;;;3.97;;
48995;SDS011;34806;53.882;10.656;2022-08-03T05:51:14;4.32;;;3.85;;
48995;SDS011;34806;53.882;10.656;2022-08-03T05:53:42;4.75;;;3.60;;
48995;SDS011;34806;53.882;10.656;2022-08-03T05:56:12;4.07;;;3.65;;
48995;SDS011;34806;53.882;10.656;2022-08-03T05:58:42;5.20;;;3.55;;
48995;SDS011;34806;53.882;10.656;2022-08-03T06:01:12;4.60;;;3.63;;
48995;SDS011;34806;53.882;10.656;2022-08-03T06:03:40;4.30;;;3.90;;
48995;SDS011;34806;53.882;10.656;2022-08-03T06:06:08;5.85;;;3.47;;
48995;SDS011;34806;53.882;10.656;2022-08-03T06:08:37;4.72;;;4.03;;
48995;SDS011;34806;53.882;10.656;2022-08-03T06:11:05;5.32;;;3.53;;
48995;SDS011;34806;53.882;10.656;2022-08-03T06:13:34;5.07;;;3.92;;
48995;SDS011;34806;53.882;10.656;2022-08-03T06:16:03;6.15;;;3.75;;
48995;SDS011;34806;53.882;10.656;2022-08-03T06:18:31;3.90;;;3.60;;
48995;SDS011;34806;53.882;10.656;2022-08-03T06:20:59;9.27;;;4.47;;
48995;SDS011;34806;53.882;10.656;2022-08-03T06:23:41;6.18;;;3.90;;
48995;SDS011;34806;53.882;10.656;2022-08-03T06:26:20;5.93;;;3.83;;
48995;SDS011;34806;53.882;10.656;2022-08-03T06:28:54;4.43;;;3.80;;
48995;SDS011;34806;53.882;10.656;2022-08-03T06:31:23;5.32;;;3.85;;
48995;SDS011;34806;53.882;10.656;2022-08-03T06:33:59;5.78;;;4.05;;
48995;SDS011;34806;53.882;10.656;2022-08-03T06:36:48;4.25;;;3.58;;
48995;SDS011;34806;53.882;10.656;2022-08-03T06:39:18;4.88;;;3.50;;
48995;SDS011;34806;53.882;10.656;2022-08-03T06:41:49;5.47;;;4.18;;
48995;SDS011;34806;53.882;10.656;2022-08-03T06:44:19;4.03;;;3.60;;
48995;SDS011;34806;53.882;10.656;2022-08-03T06:46:47;6.70;;;3.85;;
48995;SDS011;34806;53.882;10.656;2022-08-03T06:49:16;4.38;;;3.97;;
48995;SDS011;34806;53.882;10.656;2022-08-03T06:51:45;4.07;;;3.67;;
48995;SDS011;34806;53.882;10.656;2022-08-03T06:56:59;5.22;;;4.30;;
48995;SDS011;34806;53.882;10.656;2022-08-03T06:59:29;4.82;;;3.80;;
48995;SDS011;34806;53.882;10.656;2022-08-03T07:02:17;4.60;;;4.20;;
48995;SDS011;34806;53.882;10.656;2022-08-03T07:04:45;7.63;;;3.85;;
48995;SDS011;34806;53.882;10.656;2022-08-03T07:07:13;4.22;;;3.83;;
48995;SDS011;34806;53.882;10.656;2022-08-03T07:09:42;4.20;;;3.80;;
48995;SDS011;34806;53.882;10.656;2022-08-03T07:12:24;6.20;;;4.13;;
48995;SDS011;34806;53.882;10.656;2022-08-03T07:14:54;9.90;;;4.30;;
48995;SDS011;34806;53.882;10.656;2022-08-03T07:19:57;11.85;;;4.47;;
48995;SDS011;34806;53.882;10.656;2022-08-03T07:22:25;9.27;;;4.05;;
48995;SDS011;34806;53.882;10.656;2022-08-03T07:24:53;6.70;;;3.95;;
48995;SDS011;34806;53.882;10.656;2022-08-03T07:27:21;12.10;;;3.67;;
48995;SDS011;34806;53.882;10.656;2022-08-03T07:29:51;15.50;;;4.28;;
48995;SDS011;34806;53.882;10.656;2022-08-03T07:32:22;6.45;;;4.00;;
48995;SDS011;34806;53.882;10.656;2022-08-03T07:34:50;4.75;;;3.85;;
48995;SDS011;34806;53.882;10.656;2022-08-03T07:37:25;8.60;;;4.00;;
48995;SDS011;34806;53.882;10.656;2022-08-03T07:39:53;5.25;;;3.80;;
48995;SDS011;34806;53.882;10.656;2022-08-03T07:42:21;4.88;;;3.92;;
48995;SDS011;34806;53.882;10.656;2022-08-03T07:44:49;6.35;;;4.03;;
48995;SDS011;34806;53.882;10.656;2022-08-03T07:47:19;11.48;;;4.20;;
48995;SDS011;34806;53.882;10.656;2022-08-03T07:49:48;8.75;;;4.00;;
48995;SDS011;34806;53.882;10.656;2022-08-03T07:52:16;6.53;;;3.88;;
48995;SDS011;34806;53.882;10.656;2022-08-03T07:55:13;4.93;;;3.83;;
48995;SDS011;34806;53.882;10.656;2022-08-03T07:57:42;4.45;;;3.97;;
48995;SDS011;34806;53.882;10.656;2022-08-03T08:00:13;7.55;;;3.55;;
48995;SDS011;34806;53.882;10.656;2022-08-03T08:02:45;5.00;;;3.53;;
48995;SDS011;34806;53.882;10.656;2022-08-03T08:05:13;3.78;;;3.47;;
48995;SDS011;34806;53.882;10.656;2022-08-03T08:07:41;3.85;;;3.38;;
48995;SDS011;34806;53.882;10.656;2022-08-03T08:10:16;5.10;;;3.65;;
48995;SDS011;34806;53.882;10.656;2022-08-03T08:12:44;5.55;;;3.65;;
48995;SDS011;34806;53.882;10.656;2022-08-03T08:15:12;7.82;;;3.42;;
48995;SDS011;34806;53.882;10.656;2022-08-03T08:17:41;4.53;;;3.25;;
48995;SDS011;34806;53.882;10.656;2022-08-03T08:20:14;3.92;;;3.38;;
48995;SDS011;34806;53.882;10.656;2022-08-03T08:22:54;6.82;;;3.50;;
48995;SDS011;34806;53.882;10.656;2022-08-03T08:25:26;3.83;;;3.40;;
48995;SDS011;34806;53.882;10.656;2022-08-03T08:27:55;7.15;;;3.60;;
48995;SDS011;34806;53.882;10.656;2022-08-03T08:30:46;4.88;;;3.40;;
48995;SDS011;34806;53.882;10.656;2022-08-03T08:33:15;5.43;;;3.38;;
48995;SDS011;34806;53.882;10.656;2022-08-03T08:35:50;3.38;;;2.95;;
48995;SDS011;34806;53.882;10.656;2022-08-03T08:38:19;4.88;;;3.25;;
48995;SDS011;34806;53.882;10.656;2022-08-03T08:40:48;4.22;;;3.30;;
48995;SDS011;34806;53.882;10.656;2022-08-03T08:43:16;3.38;;;3.10;;
48995;SDS011;34806;53.882;10.656;2022-08-03T08:45:44;3.47;;;3.17;;
48995;SDS011;34806;53.882;10.656;2022-08-03T08:48:16;4.38;;;3.20;;
48995;SDS011;34806;53.882;10.656;2022-08-03T08:50:52;3.67;;;3.30;;
48995;SDS011;34806;53.882;10.656;2022-08-03T08:53:20;4.32;;;3.10;;
48995;SDS011;34806;53.882;10.656;2022-08-03T08:55:52;4.03;;;3.20;;
48995;SDS011;34806;53.882;10.656;2022-08-03T08:58:27;3.70;;;3.20;;
48995;SDS011;34806;53.882;10.656;2022-08-03T09:01:00;3.92;;;3.10;;
48995;SDS011;34806;53.882;10.656;2022-08-03T09:03:30;3.40;;;3.10;;
48995;SDS011;34806;53.882;10.656;2022-08-03T09:06:01;4.32;;;3.00;;
48995;SDS011;34806;53.882;10.656;2022-08-03T09:08:30;4.07;;;3.03;;
48995;SDS011;34806;53.882;10.656;2022-08-03T09:10:59;4.13;;;3.00;;
48995;SDS011;34806;53.882;10.656;2022-08-03T09:13:27;3.35;;;3.10;;
48995;SDS011;34806;53.882;10.656;2022-08-03T09:16:08;3.42;;;3.10;;
48995;SDS011;34806;53.882;10.656;2022-08-03T09:18:40;3.70;;;3.05;;
48995;SDS011;34806;53.882;10.656;2022-08-03T09:21:14;4.65;;;2.70;;
48995;SDS011;34806;53.882;10.656;2022-08-03T09:24:01;3.70;;;3.20;;
48995;SDS011;34806;53.882;10.656;2022-08-03T09:26:36;3.47;;;3.17;;
48995;SDS011;34806;53.882;10.656;2022-08-03T09:29:05;7.95;;;3.20;;
48995;SDS011;34806;53.882;10.656;2022-08-03T09:31:40;4.18;;;3.10;;
48995;SDS011;34806;53.882;10.656;2022-08-03T09:34:13;4.35;;;3.03;;
48995;SDS011;34806;53.882;10.656;2022-08-03T09:36:44;3.33;;;3.03;;
48995;SDS011;34806;53.882;10.656;2022-08-03T09:39:14;3.28;;;2.97;;
48995;SDS011;34806;53.882;10.656;2022-08-03T09:41:43;5.57;;;3.28;;
48995;SDS011;34806;53.882;10.656;2022-08-03T09:44:12;4.85;;;3.13;;
48995;SDS011;34806;53.882;10.656;2022-08-03T09:46:52;3.10;;;2.80;;
48995;SDS011;34806;53.882;10.656;2022-08-03T09:49:22;3.50;;;3.10;;
48995;SDS011;34806;53.882;10.656;2022-08-03T09:51:52;6.72;;;3.22;;
48995;SDS011;34806;53.882;10.656;2022-08-03T09:54:41;5.55;;;2.88;;
48995;SDS011;34806;53.882;10.656;2022-08-03T09:57:19;5.75;;;2.85;;
48995;SDS011;34806;53.882;10.656;2022-08-03T09:59:49;3.75;;;2.90;;
48995;SDS011;34806;53.882;10.656;2022-08-03T10:02:31;3.25;;;2.90;;
48995;SDS011;34806;53.882;10.656;2022-08-03T10:04:59;4.63;;;3.17;;
48995;SDS011;34806;53.882;10.656;2022-08-03T10:07:28;3.45;;;3.10;;
48995;SDS011;34806;53.882;10.656;2022-08-03T10:09:57;5.63;;;2.75;;
48995;SDS011;34806;53.882;10.656;2022-08-03T10:12:47;3.92;;;2.97;;
48995;SDS011;34806;53.882;10.656;2022-08-03T10:15:15;5.70;;;3.25;;
48995;SDS011;34806;53.882;10.656;2022-08-03T10:18:03;2.88;;;2.50;;
48995;SDS011;34806;53.882;10.656;2022-08-03T10:20:34;5.43;;;2.80;;
48995;SDS011;34806;53.882;10.656;2022-08-03T10:23:05;7.75;;;3.03;;
48995;SDS011;34806;53.882;10.656;2022-08-03T10:25:37;5.72;;;2.97;;
48995;SDS011;34806;53.882;10.656;2022-08-03T10:28:07;4.85;;;2.90;;
48995;SDS011;34806;53.882;10.656;2022-08-03T10:30:39;2.92;;;2.70;;
48995;SDS011;34806;53.882;10.656;2022-08-03T10:33:12;3.30;;;2.65;;
48995;SDS011;34806;53.882;10.656;2022-08-03T10:36:04;2.95;;;2.75;;
48995;SDS011;34806;53.882;10.656;2022-08-03T10:38:36;3.83;;;2.78;;
48995;SDS011;34806;53.882;10.656;2022-08-03T10:41:11;3.00;;;2.70;;
48995;SDS011;34806;53.882;10.656;2022-08-03T10:43:41;4.40;;;2.85;;
48995;SDS011;34806;53.882;10.656;2022-08-03T10:46:14;3.55;;;2.83;;
48995;SDS011;34806;53.882;10.656;2022-08-03T10:48:45;4.35;;;3.05;;
48995;SDS011;34806;53.882;10.656;2022-08-03T10:51:14;4.95;;;2.83;;
48995;SDS011;34806;53.882;10.656;2022-08-03T10:53:44;4.60;;;2.67;;
48995;SDS011;34806;53.882;10.656;2022-08-03T10:59:56;4.87;;;3.60;;
48995;SDS011;34806;53.882;10.656;2022-08-03T11:05:42;3.42;;;2.90;;
48995;SDS011;34806;53.882;10.656;2022-08-03T11:08:17;3.50;;;2.88;;
48995;SDS011;34806;53.882;10.656;2022-08-03T11:10:55;4.55;;;2.95;;
48995;SDS011;34806;53.882;10.656;2022-08-03T11:13:26;6.72;;;3.10;;
48995;SDS011;34806;53.882;10.656;2022-08-03T11:15:57;3.75;;;3.00;;
48995;SDS011;34806;53.882;10.656;2022-08-03T11:18:32;3.45;;;2.83;;
48995;SDS011;34806;53.882;10.656;2022-08-03T11:21:01;5.18;;;2.85;;
48995;SDS011;34806;53.882;10.656;2022-08-03T11:23:42;3.25;;;2.85;;
48995;SDS011;34806;53.882;10.656;2022-08-03T11:26:33;5.15;;;3.15;;
48995;SDS011;34806;53.882;10.656;2022-08-03T11:31:55;3.40;;;2.80;;
48995;SDS011;34806;53.882;10.656;2022-08-03T11:34:23;3.65;;;2.90;;
48995;SDS011;34806;53.882;10.656;2022-08-03T11:39:48;4.38;;;2.95;;
48995;SDS011;34806;53.882;10.656;2022-08-03T11:42:40;6.07;;;3.00;;
48995;SDS011;34806;53.882;10.656;2022-08-03T11:45:13;3.38;;;2.72;;
48995;SDS011;34806;53.882;10.656;2022-08-03T11:47:41;3.28;;;2.70;;
48995;SDS011;34806;53.882;10.656;2022-08-03T11:50:16;5.95;;;3.50;;
48995;SDS011;34806;53.882;10.656;2022-08-03T11:52:46;3.20;;;2.60;;
48995;SDS011;34806;53.882;10.656;2022-08-03T11:55:16;3.85;;;3.10;;
48995;SDS011;34806;53.882;10.656;2022-08-03T11:57:48;4.25;;;2.90;;
48995;SDS011;34806;53.882;10.656;2022-08-03T12:00:36;4.00;;;2.80;;
48995;SDS011;34806;53.882;10.656;2022-08-03T12:03:06;4.18;;;2.80;;
48995;SDS011;34806;53.882;10.656;2022-08-03T12:05:38;2.80;;;2.60;;
48995;SDS011;34806;53.882;10.656;2022-08-03T12:08:28;4.10;;;2.58;;
48995;SDS011;34806;53.882;10.656;2022-08-03T12:10:58;4.65;;;2.83;;
48995;SDS011;34806;53.882;10.656;2022-08-03T12:13:36;3.30;;;2.67;;
48995;SDS011;34806;53.882;10.656;2022-08-03T12:16:25;3.50;;;2.72;;
48995;SDS011;34806;53.882;10.656;2022-08-03T12:18:55;4.72;;;2.70;;
48995;SDS011;34806;53.882;10.656;2022-08-03T12:21:24;3.63;;;2.90;;
48995;SDS011;34806;53.882;10.656;2022-08-03T12:23:55;3.58;;;3.00;;
48995;SDS011;34806;53.882;10.656;2022-08-03T12:26:24;4.22;;;2.92;;
48995;SDS011;34806;53.882;10.656;2022-08-03T12:28:54;4.45;;;2.72;;
48995;SDS011;34806;53.882;10.656;2022-08-03T12:31:22;5.00;;;2.80;;
48995;SDS011;34806;53.882;10.656;2022-08-03T12:33:53;3.35;;;2.55;;
48995;SDS011;34806;53.882;10.656;2022-08-03T12:36:24;5.05;;;2.72;;
48995;SDS011;34806;53.882;10.656;2022-08-03T12:38:53;3.08;;;2.78;;
48995;SDS011;34806;53.882;10.656;2022-08-03T12:41:26;4.10;;;2.80;;
48995;SDS011;34806;53.882;10.656;2022-08-03T12:43:57;3.15;;;2.50;;
48995;SDS011;34806;53.882;10.656;2022-08-03T12:46:29;3.53;;;2.60;;
48995;SDS011;34806;53.882;10.656;2022-08-03T12:48:59;6.35;;;3.10;;
48995;SDS011;34806;53.882;10.656;2022-08-03T12:51:33;4.55;;;2.60;;
48995;SDS011;34806;53.882;10.656;2022-08-03T12:54:02;3.83;;;2.83;;
48995;SDS011;34806;53.882;10.656;2022-08-03T12:56:31;3.67;;;2.70;;
48995;SDS011;34806;53.882;10.656;2022-08-03T12:59:00;3.03;;;2.72;;
48995;SDS011;34806;53.882;10.656;2022-08-03T13:01:43;3.25;;;2.78;;
48995;SDS011;34806;53.882;10.656;2022-08-03T13:04:24;3.08;;;2.80;;
48995;SDS011;34806;53.882;10.656;2022-08-03T13:06:59;2.50;;;2.28;;
48995;SDS011;34806;53.882;10.656;2022-08-03T13:09:29;3.33;;;2.53;;
48995;SDS011;34806;53.882;10.656;2022-08-03T13:12:07;2.70;;;2.45;;
48995;SDS011;34806;53.882;10.656;2022-08-03T13:14:37;4.78;;;2.60;;
48995;SDS011;34806;53.882;10.656;2022-08-03T13:17:06;3.88;;;2.80;;
48995;SDS011;34806;53.882;10.656;2022-08-03T13:19:35;3.47;;;2.63;;
48995;SDS011;34806;53.882;10.656;2022-08-03T13:22:11;3.63;;;2.63;;
48995;SDS011;34806;53.882;10.656;2022-08-03T13:27:09;3.05;;;2.47;;
48995;SDS011;34806;53.882;10.656;2022-08-03T13:29:58;3.28;;;2.28;;
48995;SDS011;34806;53.882;10.656;2022-08-03T13:32:26;3.38;;;2.40;;
48995;SDS011;34806;53.882;10.656;2022-08-03T13:34:54;3.13;;;2.60;;
48995;SDS011;34806;53.882;10.656;2022-08-03T13:37:22;3.92;;;2.78;;
48995;SDS011;34806;53.882;10.656;2022-08-03T13:39:51;2.70;;;2.30;;
48995;SDS011;34806;53.882;10.656;2022-08-03T13:42:26;3.17;;;2.60;;
48995;SDS011;34806;53.882;10.656;2022-08-03T13:44:55;3.28;;;2.30;;
48995;SDS011;34806;53.882;10.656;2022-08-03T13:47:25;3.10;;;2.15;;
48995;SDS011;34806;53.882;10.656;2022-08-03T13:49:54;2.95;;;2.75;;
48995;SDS011;34806;53.882;10.656;2022-08-03T13:52:25;5.30;;;2.80;;
48995;SDS011;34806;53.882;10.656;2022-08-03T13:54:54;2.45;;;2.25;;
48995;SDS011;34806;53.882;10.656;2022-08-03T13:57:23;4.38;;;2.40;;
48995;SDS011;34806;53.882;10.656;2022-08-03T14:00:11;2.40;;;2.20;;
48995;SDS011;34806;53.882;10.656;2022-08-03T14:02:53;5.80;;;2.30;;
48995;SDS011;34806;53.882;10.656;2022-08-03T14:05:29;5.60;;;2.65;;
48995;SDS011;34806;53.882;10.656;2022-08-03T14:07:57;3.95;;;2.20;;
48995;SDS011;34806;53.882;10.656;2022-08-03T14:10:30;3.53;;;2.70;;
48995;SDS011;34806;53.882;10.656;2022-08-03T14:12:58;2.55;;;2.35;;
48995;SDS011;34806;53.882;10.656;2022-08-03T14:15:26;2.47;;;2.28;;
48995;SDS011;34806;53.882;10.656;2022-08-03T14:17:56;3.00;;;2.28;;
48995;SDS011;34806;53.882;10.656;2022-08-03T14:20:24;3.13;;;2.17;;
48995;SDS011;34806;53.882;10.656;2022-08-03T14:23:04;4.32;;;2.25;;
48995;SDS011;34806;53.882;10.656;2022-08-03T14:25:32;3.58;;;2.60;;
48995;SDS011;34806;53.882;10.656;2022-08-03T14:28:16;5.78;;;2.22;;
48995;SDS011;34806;53.882;10.656;2022-08-03T14:30:44;4.88;;;2.72;;
48995;SDS011;34806;53.882;10.656;2022-08-03T14:33:15;3.45;;;2.50;;
48995;SDS011;34806;53.882;10.656;2022-08-03T14:35:43;3.10;;;2.38;;
48995;SDS011;34806;53.882;10.656;2022-08-03T14:38:11;5.30;;;2.70;;
48995;SDS011;34806;53.882;10.656;2022-08-03T14:40:39;4.22;;;2.28;;
48995;SDS011;34806;53.882;10.656;2022-08-03T14:43:07;6.55;;;2.40;;
48995;SDS011;34806;53.882;10.656;2022-08-03T14:45:35;5.30;;;2.60;;
48995;SDS011;34806;53.882;10.656;2022-08-03T14:48:03;4.60;;;2.55;;
48995;SDS011;34806;53.882;10.656;2022-08-03T14:50:53;8.52;;;2.67;;
48995;SDS011;34806;53.882;10.656;2022-08-03T14:53:22;7.80;;;2.63;;
48995;SDS011;34806;53.882;10.656;2022-08-03T14:55:50;5.03;;;2.65;;
48995;SDS011;34806;53.882;10.656;2022-08-03T14:58:19;6.22;;;2.47;;
48995;SDS011;34806;53.882;10.656;2022-08-03T15:00:48;3.40;;;2.47;;
48995;SDS011;34806;53.882;10.656;2022-08-03T15:03:16;3.65;;;2.70;;
48995;SDS011;34806;53.882;10.656;2022-08-03T15:05:48;8.43;;;2.63;;
48995;SDS011;34806;53.882;10.656;2022-08-03T15:08:18;4.55;;;2.38;;
48995;SDS011;34806;53.882;10.656;2022-08-03T15:10:46;4.28;;;2.33;;
48995;SDS011;34806;53.882;10.656;2022-08-03T15:13:14;6.82;;;2.60;;
48995;SDS011;34806;53.882;10.656;2022-08-03T15:15:43;6.32;;;2.58;;
48995;SDS011;34806;53.882;10.656;2022-08-03T15:18:11;7.47;;;2.42;;
48995;SDS011;34806;53.882;10.656;2022-08-03T15:20:39;4.05;;;2.47;;
48995;SDS011;34806;53.882;10.656;2022-08-03T15:23:11;4.60;;;2.42;;
48995;SDS011;34806;53.882;10.656;2022-08-03T15:25:42;4.35;;;2.72;;